Flight Track Log - Related Links

Times and Time Zones

All times are in EDT time to prevent confusion due to time zone crossing. See the SKW6528 flight status page for this flight to view local times or setup timezone preferences in your user account.

Time Position Orientation Groundspeed Altitude Reporting Facility
EDT Latitude Longitude Course Direction KTS MPH feet Rate Location/Type
Thu 12:34:38 39.8667 -104.5667 90° East 201 231 6,800  Level Denver TRACON
Thu 12:35:38 39.8500 -104.4833 105° East 274 315 8,500 1,823 Climbing Denver TRACON
Thu 12:35:57 39.8317 -104.4592 135° Southeast 279 321 9,200 2,000 Climbing Denver Center
Thu 12:36:59 39.8086 -104.3500 105° East 316 364 11,200 1,887 Climbing Denver Center
Thu 12:37:00 39.7667 -104.0341 90° East  Level FlightAware Approximate
Thu 12:38:00 39.7500 -103.8780 90° East  Level FlightAware Approximate
Thu 12:38:01 39.7969 -104.2267 97° East 350 403 13,100  Level Denver Center
Thu 12:39:00 39.7333 -103.7209 90° East  Level FlightAware Approximate
Thu 12:39:03 39.7814 -104.0922 99° East 347 399 15,400  Level Denver Center
Thu 12:40:04 39.7669 -103.9633 98° East 359 413 17,400 1,854 Climbing Denver Center
Thu 12:41:06 39.7525 -103.8253 98° East 361 415 19,200 1,452 Climbing Denver Center
Thu 12:42:08 39.7386 -103.7042 98° East 357 411 20,400 1,258 Climbing Denver Center
Thu 12:43:10 39.7286 -103.5672 95° East 376 433 21,800 1,456 Climbing Denver Center
Thu 12:44:24 39.7133 -103.3806 96° East 383 441 23,700 1,191 Climbing Denver Center
Thu 12:45:26 39.7019 -103.2386 96° East 390 449 24,500 919 Climbing Denver Center
Thu 12:46:28 39.6894 -103.0903 96° East 407 468 25,600 1,016 Climbing Denver Center
Thu 12:47:30 39.6778 -102.9467 96° East 399 459 26,600 919 Climbing Denver Center
Thu 12:48:32 39.6647 -102.7969 96° East 413 475 27,500 683 Climbing Denver Center
Thu 12:49:33 39.6506 -102.6347 96° East 412 474 28,000 488 Climbing Denver Center
Thu 12:50:35 39.6389 -102.4894 96° East 420 483 28,500 435 Climbing Denver Center
Thu 12:51:37 39.6222 -102.3158 97° East 432 497 28,900 387 Climbing Denver Center
Thu 12:52:39 39.6081 -102.1639 97° East 445 512 29,300 629 Climbing Denver Center
Thu 12:53:41 39.5919 -101.9864 97° East 444 511 30,200 581 Climbing Denver Center
Thu 12:54:43 39.5797 -101.8336 96° East 444 511 30,500 390 Climbing Denver Center
Thu 12:55:44 39.5681 -101.6803 96° East 447 514 31,000 244 Climbing Denver Center
Thu 12:56:46 39.5525 -101.5011 96° East 449 517 31,000  Level Denver Center
Thu 12:57:48 39.5364 -101.3422 97° East 462 532 31,000  Level Denver Center
Thu 12:58:50 39.5122 -101.1844 101° East 468 539 31,000  Level Denver Center
Thu 12:59:52 39.4853 -100.9981 101° East 473 544 31,000  Level Denver Center
Thu 13:00:54 39.4575 -100.8117 101° East 474 545 31,000  Level Denver Center
Thu 13:01:56 39.4336 -100.6517 101° East 475 547 31,000 48 Level Denver Center
Thu 13:02:58 39.4047 -100.4650 101° East 476 548 31,100 435 Climbing Denver Center
Thu 13:04:00 39.3811 -100.3078 101° East 469 540 31,900 726 Climbing Denver Center
Thu 13:05:02 39.3533 -100.1275 101° East 460 529 32,600 537 Climbing Denver Center
Thu 13:06:03 39.3286 -99.9742 102° East 458 527 33,000 195 Climbing Denver Center
Thu 13:07:05 39.3000 -99.7944 102° East 461 531 33,000  Level Denver Center
Thu 13:08:07 39.2742 -99.6369 102° East 466 536 33,000  Level Denver Center
Thu 13:09:09 39.2486 -99.4781 102° East 471 542 33,000  Level Denver Center
Thu 13:10:11 39.2189 -99.2933 102° East 472 543 33,000  Level Denver Center
Thu 13:11:13 39.1758 -99.1319 109° East 459 528 33,000  Level Denver Center
Thu 13:12:15 39.1308 -98.9856 112° Southeast 457 526 33,000  Level Denver Center
Thu 13:13:16 39.0778 -98.8089 111° Southeast 457 526 33,000  Level Denver Center
Thu 13:13:53 39.0550 -98.7353 112° Southeast 455 524 33,000  Level Kansas City Center
Thu 13:14:53 39.0078 -98.5842 112° Southeast 455 524 33,000  Level Kansas City Center
Thu 13:15:57 38.9611 -98.4336 112° Southeast 452 520 33,000  Level Kansas City Center
Thu 13:16:57 38.9142 -98.2831 112° Southeast 453 521 33,000  Level Kansas City Center
Thu 13:17:57 38.8675 -98.1311 111° Southeast 455 524 33,000  Level Kansas City Center
Thu 13:19:01 38.8103 -97.9519 112° Southeast 452 520 33,000  Level Kansas City Center
Thu 13:20:02 38.7678 -97.8167 112° Southeast 450 518 33,000  Level Kansas City Center
Thu 13:21:05 38.7156 -97.6508 112° Southeast 451 519 33,000  Level Kansas City Center
Thu 13:22:06 38.6672 -97.5056 113° Southeast 450 518 33,000  Level Kansas City Center
Thu 13:23:07 38.6206 -97.3567 112° Southeast 449 517 33,000  Level Kansas City Center
Thu 13:24:11 38.5728 -97.2100 113° Southeast 447 514 33,000  Level Kansas City Center
Thu 13:25:12 38.5247 -97.0619 112° Southeast 448 516 33,000  Level Kansas City Center
Thu 13:26:14 38.4764 -96.9144 113° Southeast 449 517 33,000  Level Kansas City Center
Thu 13:27:14 38.4272 -96.7672 113° Southeast 450 518 33,000  Level Kansas City Center
Thu 13:28:17 38.3694 -96.5917 113° Southeast 448 516 33,000  Level Kansas City Center
Thu 13:29:19 38.3250 -96.4567 113° Southeast 450 518 33,000  Level Kansas City Center
Thu 13:30:19 38.2703 -96.2942 113° Southeast 449 517 33,000  Level Kansas City Center
Thu 13:31:23 38.2219 -96.1544 114° Southeast 450 518 33,000  Level Kansas City Center
Thu 13:32:24 38.1669 -95.9922 113° Southeast 449 517 33,000  Level Kansas City Center
Thu 13:33:25 38.1192 -95.8511 113° Southeast 456 525 33,000  Level Kansas City Center
Thu 13:34:26 38.0642 -95.6883 113° Southeast 452 520 33,000  Level Kansas City Center
Thu 13:35:29 38.0156 -95.5494 114° Southeast 451 519 33,000  Level Kansas City Center
Thu 13:36:29 37.9597 -95.3867 113° Southeast 452 520 33,000 -145 Level Kansas City Center
Thu 13:37:33 37.9164 -95.2592 113° Southeast 452 520 32,700 -864 Descending Kansas City Center
Thu 13:38:34 37.8611 -95.1053 114° Southeast 457 526 31,200 -1,512 Descending Kansas City Center
Thu 13:39:36 37.8014 -94.9342 114° Southeast 469 540 29,600 -2,000 Descending Kansas City Center
Thu 13:40:37 37.7514 -94.7875 113° Southeast 474 545 27,100 -2,585 Descending Kansas City Center
Thu 13:41:39 37.6961 -94.6311 114° Southeast 450 518 24,300 -2,544 Descending Kansas City Center
Thu 13:42:42 37.6508 -94.5036 114° Southeast 416 479 21,800 -2,468 Descending Kansas City Center
Thu 13:43:43 37.6078 -94.3847 115° Southeast 384 442 19,200 -2,579 Descending Kansas City Center
Thu 13:44:43 37.5628 -94.2614 115° Southeast 382 440 16,600 -2,468 Descending Kansas City Center
Thu 13:45:47 37.4986 -94.1481 125° Southeast 390 449 14,100 -2,496 Descending Kansas City Center
Thu 13:46:48 37.4344 -94.0400 127° Southeast 376 433 11,400 -2,000 Descending Kansas City Center
Thu 13:47:50 37.3789 -93.9461 127° Southeast 352 405 10,000 -1,463 Descending Kansas City Center
Thu 13:48:51 37.3333 -93.8628 124° Southeast 315 362 8,400 -1,790 Descending Kansas City Center
Thu 13:49:54 37.2900 -93.7872 126° Southeast 284 327 6,300 -1,645 Descending Kansas City Center
Thu 13:50:55 37.2372 -93.6953 126° Southeast 273 314 5,000 -634 Descending Kansas City Center
Thu 13:51:57 37.1914 -93.6169 126° Southeast 274 315 5,000 -393 Level Kansas City Center
Thu 13:52:57 37.1453 -93.5386 126° Southeast 276 318 4,200 -484 Descending Kansas City Center
Thu 13:54:01 37.1003 -93.4600 126° Southeast 277 319 4,000 -333 Descending Kansas City Center
Thu 13:55:03 37.0542 -93.3814 126° Southeast 274 315 3,500 -484 Descending Kansas City Center
Thu 13:57:00 37.2333 -93.3833 50° Northeast  Level FlightAware Approximate

Login

Don't have an account? Register now (free) for customized features, flight alerts, and more!